Time;durP1;ratioP1;P1;durP2;ratioP2;P2;SDS_P1;SDS_P2;PMS_P1;PMS_P2;Temp;Humidity;BMP_temperature;BMP_pressure;BME280_temperature;BME280_humidity;BME280_pressure;Samples;Min_cycle;Max_cycle;Signal;HPM_P1;HPM_P2
2021/03/13 00:00:32;;;;;;;16.00;2.30;;;7.90;99.90;;;;;;5069105;28;20024;-73
2021/03/13 00:02:58;;;;;;;18.15;3.35;;;7.90;99.90;;;;;;5071688;28;20452;-75
2021/03/13 00:05:27;;;;;;;29.42;3.33;;;7.90;99.90;;;;;;5069658;28;20488;-83
2021/03/13 00:07:54;;;;;;;26.60;2.53;;;7.90;99.90;;;;;;5069145;28;20036;-74
2021/03/13 00:10:20;;;;;;;28.52;4.13;;;8.00;99.90;;;;;;5072346;28;20052;-74
2021/03/13 00:12:45;;;;;;;16.00;3.28;;;8.00;99.90;;;;;;5067264;28;20448;-77
2021/03/13 00:15:15;;;;;;;22.70;2.90;;;8.00;99.90;;;;;;5073943;28;20033;-74
2021/03/13 00:17:45;;;;;;;13.00;2.85;;;7.90;99.90;;;;;;5072319;28;20427;-75
2021/03/13 00:20:13;;;;;;;17.35;3.03;;;8.00;99.90;;;;;;5071576;28;20041;-75
2021/03/13 00:22:39;;;;;;;26.40;3.58;;;8.00;99.90;;;;;;5072464;28;20032;-76
2021/03/13 00:25:07;;;;;;;14.00;2.90;;;8.00;99.90;;;;;;5072103;28;20028;-76
2021/03/13 00:27:45;;;;;;;;;;;8.00;99.90;;;;;;5071535;28;20028;-76
2021/03/13 00:30:20;;;;;;;17.02;2.30;;;8.00;99.90;;;;;;5072004;28;20035;-77
2021/03/13 00:32:48;;;;;;;20.58;2.72;;;7.90;99.90;;;;;;5071343;28;20024;-75
2021/03/13 00:35:14;;;;;;;;;;;8.00;99.90;;;;;;5073202;28;20035;-75
2021/03/13 00:37:40;;;;;;;18.25;3.28;;;7.90;99.90;;;;;;5071569;28;19909;-75
2021/03/13 00:40:08;;;;;;;17.63;2.90;;;8.00;99.90;;;;;;5067629;28;20036;-75
2021/03/13 00:42:34;;;;;;;;;;;8.00;99.90;;;;;;5072115;28;20029;-74
2021/03/13 00:44:59;;;;;;;11.68;3.35;;;8.00;99.90;;;;;;5071826;28;20007;-75
2021/03/13 00:47:26;;;;;;;11.63;2.55;;;8.00;99.90;;;;;;5072517;28;20044;-75
2021/03/13 00:49:52;;;;;;;11.23;2.50;;;8.00;99.90;;;;;;5068287;28;20012;-75
2021/03/13 00:52:18;;;;;;;19.65;2.90;;;8.00;99.90;;;;;;5071759;28;20077;-75
2021/03/13 00:54:43;;;;;;;12.60;3.00;;;8.00;99.90;;;;;;5070852;28;20024;-75
2021/03/13 00:57:09;;;;;;;18.95;2.40;;;8.00;99.90;;;;;;5072966;28;20036;-76
2021/03/13 00:59:34;;;;;;;8.73;2.00;;;8.00;99.90;;;;;;5071746;28;20409;-76
2021/03/13 01:02:00;;;;;;;12.18;2.30;;;7.90;99.90;;;;;;5072439;28;20111;-75
2021/03/13 01:04:26;;;;;;;14.88;2.60;;;7.90;99.90;;;;;;5073326;28;20077;-76
2021/03/13 01:06:51;;;;;;;11.02;2.05;;;7.80;99.90;;;;;;5071997;28;20115;-75
2021/03/13 01:09:17;;;;;;;11.27;1.92;;;7.80;99.90;;;;;;5071618;28;20028;-75
2021/03/13 01:11:43;;;;;;;11.65;2.45;;;7.80;99.90;;;;;;5072630;28;20031;-75
2021/03/13 01:14:09;;;;;;;12.73;2.30;;;7.80;99.90;;;;;;5072370;28;20048;-76
2021/03/13 01:16:35;;;;;;;10.82;2.38;;;7.60;99.90;;;;;;5071091;28;20035;-76
2021/03/13 01:19:01;;;;;;;16.17;2.13;;;7.50;99.90;;;;;;5074333;28;20032;-76
2021/03/13 01:21:27;;;;;;;7.60;3.17;;;7.50;99.90;;;;;;5072240;28;20089;-76
2021/03/13 01:23:53;;;;;;;8.05;2.00;;;7.50;99.90;;;;;;5072529;28;20067;-76
2021/03/13 01:26:19;;;;;;;12.02;2.35;;;7.40;99.90;;;;;;5071306;28;20077;-76
2021/03/13 01:28:45;;;;;;;11.80;3.10;;;7.40;99.90;;;;;;5070053;28;20434;-76
2021/03/13 01:31:11;;;;;;;11.95;2.70;;;7.40;99.90;;;;;;5070843;28;20033;-76
2021/03/13 01:33:37;;;;;;;9.32;2.10;;;7.40;99.90;;;;;;5070642;28;20027;-75
2021/03/13 01:36:03;;;;;;;10.27;3.17;;;7.30;99.90;;;;;;5069808;28;20020;-76
2021/03/13 01:38:29;;;;;;;15.20;2.88;;;7.40;99.90;;;;;;5071743;28;20032;-75
2021/03/13 01:40:55;;;;;;;10.45;2.83;;;7.30;99.90;;;;;;5071040;28;20468;-76
2021/03/13 01:43:21;;;;;;;12.68;2.30;;;7.30;99.90;;;;;;5072636;28;20059;-76
2021/03/13 01:48:34;;;;;;;8.32;1.90;;;7.30;99.90;;;;;;5071965;28;20047;-76
2021/03/13 01:51:01;;;;;;;11.40;2.03;;;7.20;99.90;;;;;;5071225;28;20107;-77
2021/03/13 01:53:28;;;;;;;8.85;2.17;;;7.20;99.90;;;;;;5070680;28;20021;-77
2021/03/13 01:55:54;;;;;;;4.63;1.70;;;7.10;99.90;;;;;;5071341;28;20025;-78
2021/03/13 01:58:21;;;;;;;8.35;2.60;;;7.10;99.90;;;;;;5070751;28;20035;-78
2021/03/13 02:00:47;;;;;;;7.13;1.65;;;7.10;99.90;;;;;;5051456;28;20090;-78
2021/03/13 02:03:13;;;;;;;9.32;2.65;;;7.00;99.90;;;;;;5070589;28;20020;-77
2021/03/13 02:05:43;;;;;;;4.30;2.08;;;6.90;99.90;;;;;;5072756;28;20066;-77
2021/03/13 02:08:12;;;;;;;3.47;1.67;;;6.90;99.90;;;;;;5070515;28;20074;-76
2021/03/13 02:11:02;;;;;;;13.10;2.40;;;6.80;99.90;;;;;;5072233;28;20025;-75
2021/03/13 02:13:31;;;;;;;11.57;2.85;;;6.80;99.90;;;;;;5071590;28;20045;-75
2021/03/13 02:16:22;;;;;;;6.28;2.20;;;6.80;99.90;;;;;;5062170;28;20112;-77
2021/03/13 02:19:05;;;;;;;7.22;2.20;;;6.80;99.90;;;;;;5071579;28;20032;-75
2021/03/13 02:21:48;;;;;;;9.35;3.83;;;6.80;99.90;;;;;;5075421;28;20029;-76
2021/03/13 02:24:29;;;;;;;13.77;3.50;;;6.80;99.90;;;;;;5076784;28;20048;-77
2021/03/13 02:27:14;;;;;;;20.90;4.57;;;6.80;99.90;;;;;;5075454;28;20143;-78
2021/03/13 02:29:43;;;;;;;11.13;3.97;;;6.70;99.90;;;;;;5073091;28;20039;-77
2021/03/13 02:32:41;;;;;;;7.00;3.75;;;6.70;99.90;;;;;;5072558;28;20031;-77
2021/03/13 02:35:42;;;;;;;10.45;3.42;;;6.70;99.90;;;;;;5063440;28;20028;-76
2021/03/13 02:38:24;;;;;;;16.30;4.40;;;6.60;99.90;;;;;;5048928;28;20412;-76
2021/03/13 02:40:52;;;;;;;10.98;4.35;;;6.60;99.90;;;;;;5070125;28;20028;-77
2021/03/13 02:43:21;;;;;;;11.52;4.60;;;6.60;99.90;;;;;;5072592;28;20025;-76
2021/03/13 02:45:56;;;;;;;13.63;5.10;;;6.60;99.90;;;;;;5082948;28;20051;-77
2021/03/13 02:48:23;;;;;;;13.00;5.55;;;6.60;99.90;;;;;;5072251;28;20480;-75
2021/03/13 02:50:50;;;;;;;16.70;5.38;;;6.60;99.90;;;;;;5075650;28;20021;-76
2021/03/13 02:53:18;;;;;;;7.30;3.47;;;6.60;99.90;;;;;;5074615;28;20496;-75
2021/03/13 02:55:46;;;;;;;9.63;3.75;;;6.50;99.90;;;;;;5074480;28;20036;-75
2021/03/13 02:58:13;;;;;;;9.27;3.85;;;6.50;99.90;;;;;;5073863;28;20043;-75
2021/03/13 03:00:42;;;;;;;6.28;3.22;;;6.50;99.90;;;;;;5073783;28;20028;-75
2021/03/13 03:03:11;;;;;;;9.38;3.63;;;6.50;99.90;;;;;;5067656;28;20091;-75
2021/03/13 03:05:37;;;;;;;9.68;3.20;;;6.50;99.90;;;;;;5074196;28;20027;-75
2021/03/13 03:08:06;;;;;;;10.98;3.30;;;6.60;99.90;;;;;;5075058;28;20106;-75
2021/03/13 03:10:38;;;;;;;10.88;3.13;;;6.60;99.90;;;;;;5073466;28;20021;-75
2021/03/13 03:13:06;;;;;;;7.38;3.47;;;6.50;99.90;;;;;;5074795;28;20033;-75
2021/03/13 03:15:33;;;;;;;16.20;3.20;;;6.60;99.90;;;;;;5073662;28;20047;-76
2021/03/13 03:18:04;;;;;;;11.85;2.72;;;6.50;99.90;;;;;;5075081;28;20048;-75
2021/03/13 03:20:32;;;;;;;4.22;2.63;;;6.50;99.90;;;;;;5074397;28;20199;-76
2021/03/13 03:23:03;;;;;;;12.60;3.78;;;6.50;99.90;;;;;;5073056;28;20036;-78
2021/03/13 03:25:29;;;;;;;9.00;2.38;;;6.50;99.90;;;;;;5075157;28;20114;-76
2021/03/13 03:27:55;;;;;;;9.60;2.92;;;6.60;99.90;;;;;;5073456;28;20083;-76
2021/03/13 03:30:29;;;;;;;8.20;2.88;;;6.60;99.90;;;;;;5073255;28;20486;-76
2021/03/13 03:32:56;;;;;;;11.48;2.22;;;6.60;99.90;;;;;;5074593;28;20025;-76
2021/03/13 03:35:24;;;;;;;9.13;2.75;;;6.60;99.90;;;;;;5074426;28;20036;-75
2021/03/13 03:37:51;;;;;;;8.33;2.60;;;6.60;99.90;;;;;;5073548;28;20111;-76
2021/03/13 03:40:18;;;;;;;8.57;3.67;;;6.60;99.90;;;;;;5075579;28;20731;-76
2021/03/13 03:42:50;;;;;;;8.07;2.17;;;6.60;99.90;;;;;;5074531;28;20384;-76
2021/03/13 03:45:20;;;;;;;12.05;2.55;;;6.60;99.90;;;;;;5073499;28;20115;-75
2021/03/13 03:47:48;;;;;;;10.77;2.47;;;6.60;99.90;;;;;;5076585;28;20033;-75
2021/03/13 03:50:16;;;;;;;8.07;2.20;;;6.60;99.90;;;;;;5078599;28;20029;-75
2021/03/13 03:52:43;;;;;;;;;;;6.70;99.90;;;;;;5079790;28;20025;-74
2021/03/13 03:55:11;;;;;;;4.03;2.17;;;6.80;99.90;;;;;;5075712;28;19944;-75
2021/03/13 03:57:40;;;;;;;10.32;2.33;;;6.80;99.90;;;;;;5074506;28;20138;-75
2021/03/13 04:00:08;;;;;;;6.32;2.60;;;6.80;99.90;;;;;;5073339;28;20033;-75
2021/03/13 04:02:35;;;;;;;12.32;2.90;;;6.80;99.90;;;;;;5071890;28;20548;-75
2021/03/13 04:05:02;;;;;;;11.67;2.27;;;6.80;99.90;;;;;;5074755;28;20040;-76
2021/03/13 04:07:28;;;;;;;8.80;3.42;;;6.80;99.90;;;;;;5072776;28;20400;-75
2021/03/13 04:09:54;;;;;;;6.07;2.67;;;6.90;99.90;;;;;;5071355;28;20037;-75
2021/03/13 04:12:20;;;;;;;6.03;2.00;;;6.90;99.90;;;;;;5073488;28;20032;-74
2021/03/13 04:14:48;;;;;;;8.93;2.28;;;6.90;99.90;;;;;;5073666;28;20380;-74
2021/03/13 04:17:15;;;;;;;4.05;2.20;;;6.90;99.90;;;;;;5073505;28;20404;-75
2021/03/13 04:19:41;;;;;;;13.15;3.65;;;6.90;99.90;;;;;;5072530;28;20012;-74
2021/03/13 04:22:07;;;;;;;11.30;3.28;;;6.90;99.90;;;;;;5072729;28;20469;-75
2021/03/13 04:24:33;;;;;;;3.50;2.25;;;6.90;99.90;;;;;;5072139;28;20068;-75
2021/03/13 04:27:02;;;;;;;6.20;3.03;;;7.00;99.90;;;;;;5074359;28;20035;-75
2021/03/13 04:29:27;;;;;;;5.85;1.95;;;7.00;99.90;;;;;;5072074;28;20037;-75
2021/03/13 04:31:54;;;;;;;4.13;2.28;;;7.00;99.90;;;;;;5071471;28;20039;-74
2021/03/13 04:34:20;;;;;;;8.95;2.20;;;7.10;99.90;;;;;;5072978;28;20038;-74
2021/03/13 04:36:47;;;;;;;11.45;2.67;;;7.00;99.90;;;;;;5071457;28;20566;-72
2021/03/13 04:39:13;;;;;;;5.53;3.13;;;7.10;99.90;;;;;;5073296;28;20032;-74
2021/03/13 04:41:40;;;;;;;9.65;2.75;;;7.10;99.90;;;;;;5072761;28;20042;-75
2021/03/13 04:44:06;;;;;;;6.25;2.22;;;7.20;99.90;;;;;;5072874;28;20025;-75
2021/03/13 04:46:35;;;;;;;10.88;2.35;;;7.20;99.90;;;;;;5073286;28;20477;-73
2021/03/13 04:49:08;;;;;;;3.42;1.90;;;7.20;99.90;;;;;;5072638;28;20101;-73
2021/03/13 04:51:34;;;;;;;7.85;2.83;;;7.20;99.90;;;;;;5071724;28;20385;-74
2021/03/13 04:54:00;;;;;;;10.95;1.55;;;7.20;99.90;;;;;;5071971;28;20116;-74
2021/03/13 04:56:25;;;;;;;5.10;1.98;;;7.30;99.90;;;;;;5073352;28;20524;-74
2021/03/13 04:58:51;;;;;;;11.93;2.13;;;7.30;99.90;;;;;;5072580;28;20041;-74
2021/03/13 05:01:16;;;;;;;3.92;1.60;;;7.40;99.90;;;;;;5072238;28;20035;-74
2021/03/13 05:03:42;;;;;;;7.68;1.85;;;7.40;99.90;;;;;;5072682;28;20039;-74
2021/03/13 05:06:08;;;;;;;10.68;2.28;;;7.30;99.90;;;;;;5071048;28;20017;-74
2021/03/13 05:08:34;;;;;;;14.18;1.92;;;7.30;99.90;;;;;;5070605;28;20028;-74
2021/03/13 05:11:00;;;;;;;10.48;2.33;;;7.30;99.90;;;;;;5057642;28;20028;-74
2021/03/13 05:13:26;;;;;;;10.48;2.42;;;7.40;99.90;;;;;;5072825;28;20082;-75
2021/03/13 05:15:51;;;;;;;3.17;1.23;;;7.40;99.90;;;;;;5070733;28;20373;-74
2021/03/13 05:18:17;;;;;;;7.82;1.73;;;7.40;99.90;;;;;;5073744;28;20454;-73
2021/03/13 05:20:42;;;;;;;7.60;2.58;;;7.40;99.90;;;;;;5072561;28;20025;-74
2021/03/13 05:23:08;;;;;;;6.43;1.90;;;7.40;99.90;;;;;;5073095;28;20028;-73
2021/03/13 05:25:33;;;;;;;11.60;1.52;;;7.40;99.90;;;;;;5072328;28;20067;-73
2021/03/13 05:27:59;;;;;;;7.07;1.48;;;7.40;99.90;;;;;;5073347;28;20031;-73
2021/03/13 05:30:25;;;;;;;9.07;1.75;;;7.50;99.90;;;;;;5071579;28;20029;-74
2021/03/13 05:32:50;;;;;;;5.22;1.33;;;7.50;99.90;;;;;;5071527;28;20380;-73
2021/03/13 05:35:16;;;;;;;5.35;1.10;;;7.50;99.90;;;;;;5071707;28;20017;-73
2021/03/13 05:37:42;;;;;;;5.93;1.70;;;7.60;99.90;;;;;;5071270;28;20028;-73
2021/03/13 05:40:09;;;;;;;4.25;1.40;;;7.60;99.90;;;;;;5070185;28;20037;-73
2021/03/13 05:42:37;;;;;;;7.45;2.80;;;7.60;99.90;;;;;;5072245;28;20038;-74
2021/03/13 05:45:04;;;;;;;3.65;1.08;;;7.50;99.90;;;;;;5072659;28;20028;-74
2021/03/13 05:47:30;;;;;;;3.97;0.77;;;7.50;99.90;;;;;;5071663;28;20074;-73
2021/03/13 05:49:58;;;;;;;8.27;1.08;;;7.50;99.90;;;;;;5072115;28;20017;-73
2021/03/13 05:52:27;;;;;;;3.58;0.65;;;7.50;99.90;;;;;;5070341;28;20040;-73
2021/03/13 05:54:53;;;;;;;12.82;0.82;;;7.40;99.90;;;;;;5071474;28;20016;-73
2021/03/13 05:57:19;;;;;;;9.27;1.05;;;7.50;99.90;;;;;;5070820;28;20041;-73
2021/03/13 05:59:45;;;;;;;7.07;1.17;;;7.40;99.90;;;;;;5070674;28;20556;-72
2021/03/13 06:02:13;;;;;;;5.28;0.93;;;7.50;99.90;;;;;;5072164;28;20031;-74
2021/03/13 06:04:40;;;;;;;5.43;0.70;;;7.50;99.90;;;;;;5071271;28;20431;-72
2021/03/13 06:07:05;;;;;;;7.00;0.88;;;7.50;99.90;;;;;;5070840;28;20058;-73
2021/03/13 06:09:31;;;;;;;7.68;1.20;;;7.50;99.90;;;;;;5070438;28;20037;-72
2021/03/13 06:11:57;;;;;;;10.98;1.50;;;7.50;99.90;;;;;;5070024;28;20082;-73
2021/03/13 06:14:22;;;;;;;14.23;1.33;;;7.50;99.90;;;;;;5075331;28;20382;-73
2021/03/13 06:16:48;;;;;;;5.65;0.70;;;7.50;99.90;;;;;;5070714;28;20029;-72
2021/03/13 06:19:14;;;;;;;14.52;1.15;;;7.50;99.90;;;;;;5070761;28;20031;-72
2021/03/13 06:21:41;;;;;;;8.32;1.52;;;7.60;99.90;;;;;;5072299;28;20134;-71
2021/03/13 06:24:21;;;;;;;9.23;1.25;;;7.60;99.90;;;;;;5073748;28;20503;-72
2021/03/13 06:26:55;;;;;;;9.00;1.08;;;7.60;99.90;;;;;;5073754;28;20025;-73
2021/03/13 06:29:22;;;;;;;8.15;2.08;;;7.60;99.90;;;;;;5074493;28;20044;-73
2021/03/13 06:32:11;;;;;;;6.82;1.98;;;7.60;99.90;;;;;;5075493;28;20033;-73
2021/03/13 06:34:37;;;;;;;8.80;1.40;;;7.50;99.90;;;;;;5074723;28;20035;-73
2021/03/13 06:37:25;;;;;;;13.70;1.90;;;7.50;99.90;;;;;;5073736;28;20104;-72
2021/03/13 06:39:52;;;;;;;14.20;1.52;;;7.50;99.90;;;;;;5073992;28;20070;-72
2021/03/13 06:42:25;;;;;;;13.75;1.80;;;7.50;99.90;;;;;;5074374;28;20415;-72
2021/03/13 06:45:03;;;;;;;12.32;1.88;;;7.50;99.90;;;;;;5076653;28;20021;-73
2021/03/13 06:47:35;;;;;;;9.88;1.75;;;7.40;99.90;;;;;;5076667;28;20024;-73
2021/03/13 06:50:08;;;;;;;6.20;1.25;;;7.40;99.90;;;;;;5077211;28;20078;-73
2021/03/13 06:52:34;;;;;;;16.10;2.63;;;7.40;99.90;;;;;;5076729;28;20024;-73
2021/03/13 06:55:00;;;;;;;13.52;1.58;;;7.50;99.90;;;;;;5075882;28;20033;-74
2021/03/13 06:57:26;;;;;;;20.08;1.52;;;7.50;99.90;;;;;;5075520;28;20499;-73
2021/03/13 06:59:51;;;;;;;10.82;1.50;;;7.60;99.90;;;;;;5073439;28;20473;-73
2021/03/13 07:02:21;;;;;;;9.02;1.67;;;7.60;99.90;;;;;;5074170;28;20036;-73
2021/03/13 07:04:47;;;;;;;17.20;1.75;;;7.60;99.90;;;;;;5072932;28;20047;-73
2021/03/13 07:07:30;;;;;;;14.45;1.70;;;7.60;99.90;;;;;;5074323;28;20025;-74
2021/03/13 07:10:00;;;;;;;17.13;2.80;;;7.60;99.90;;;;;;5074782;28;20025;-72
2021/03/13 07:12:41;;;;;;;26.85;2.28;;;7.70;99.90;;;;;;5073911;28;20013;-72
2021/03/13 07:15:26;;;;;;;23.02;3.25;;;7.70;99.90;;;;;;5075327;28;20064;-72
2021/03/13 07:17:54;;;;;;;24.23;3.00;;;7.70;99.90;;;;;;5074373;28;20025;-74
2021/03/13 07:20:27;;;;;;;10.57;1.77;;;7.70;99.90;;;;;;5073624;28;20067;-73
2021/03/13 07:22:58;;;;;;;21.30;3.40;;;7.80;99.90;;;;;;5073035;28;20122;-73
2021/03/13 07:25:25;;;;;;;15.00;2.58;;;7.80;99.90;;;;;;5072466;28;20032;-73
2021/03/13 07:27:58;;;;;;;14.60;2.60;;;7.80;99.90;;;;;;5073935;28;20043;-73
2021/03/13 07:30:26;;;;;;;13.25;2.90;;;7.80;99.90;;;;;;5074797;28;20481;-73
2021/03/13 07:33:18;;;;;;;18.27;2.90;;;7.90;99.90;;;;;;5071491;28;20029;-74
2021/03/13 07:35:51;;;;;;;22.60;2.88;;;8.00;99.90;;;;;;5073126;28;20052;-75
2021/03/13 07:38:18;;;;;;;13.98;3.67;;;8.00;99.90;;;;;;5073749;28;20020;-74
2021/03/13 07:40:48;;;;;;;17.17;3.55;;;8.20;99.90;;;;;;5074184;28;20021;-74
2021/03/13 07:43:16;;;;;;;30.27;4.38;;;8.30;99.90;;;;;;5071906;28;20366;-73
2021/03/13 07:45:42;;;;;;;24.85;3.58;;;8.30;99.90;;;;;;5074095;28;20029;-74
2021/03/13 07:48:11;;;;;;;14.27;3.70;;;8.40;99.90;;;;;;5072634;28;20024;-74
2021/03/13 07:50:39;;;;;;;22.73;2.38;;;8.40;99.90;;;;;;5074431;28;20476;-72
2021/03/13 07:53:06;;;;;;;16.00;2.97;;;8.40;99.90;;;;;;5078352;28;20020;-73
2021/03/13 07:55:32;;;;;;;8.30;2.35;;;8.40;99.90;;;;;;5068825;28;20037;-73
2021/03/13 07:58:00;;;;;;;13.70;2.42;;;8.40;99.90;;;;;;5073270;28;20051;-73
2021/03/13 08:00:44;;;;;;;29.27;3.63;;;8.40;99.90;;;;;;5072853;28;20016;-73
2021/03/13 08:03:29;;;;;;;21.15;2.95;;;8.40;99.90;;;;;;5073886;28;20020;-72
2021/03/13 08:05:56;;;;;;;19.15;4.10;;;8.40;99.90;;;;;;5073966;28;20052;-72
2021/03/13 08:08:48;;;;;;;20.40;4.18;;;8.50;99.90;;;;;;5074274;28;20427;-74
2021/03/13 08:11:18;;;;;;;12.38;2.30;;;8.40;99.90;;;;;;5073869;28;20039;-71
2021/03/13 08:13:46;;;;;;;15.60;3.50;;;8.50;99.90;;;;;;5070216;28;20396;-73
2021/03/13 08:16:14;;;;;;;23.70;2.80;;;8.60;99.90;;;;;;5072082;28;20068;-75
2021/03/13 08:18:57;;;;;;;23.50;3.15;;;8.60;99.90;;;;;;5054969;28;20059;-74
2021/03/13 08:21:22;;;;;;;19.88;2.92;;;8.70;99.90;;;;;;5065226;28;20531;-75
2021/03/13 08:23:48;;;;;;;27.35;3.08;;;8.70;99.90;;;;;;5071236;28;20044;-76
2021/03/13 08:26:14;;;;;;;17.85;2.97;;;8.60;99.90;;;;;;5071779;28;20028;-74
2021/03/13 08:28:46;;;;;;;19.80;2.60;;;8.70;99.90;;;;;;5066560;28;20044;-76
2021/03/13 08:31:29;;;;;;;22.40;2.97;;;8.70;99.90;;;;;;5072075;28;20035;-76
2021/03/13 08:34:07;;;;;;;30.98;3.03;;;8.70;99.90;;;;;;5069959;28;20039;-75
2021/03/13 08:36:47;;;;;;;;;;;8.70;99.90;;;;;;5065709;28;20069;-75
2021/03/13 08:39:14;;;;;;;18.52;2.83;;;8.70;99.90;;;;;;5068001;28;19951;-75
2021/03/13 08:41:42;;;;;;;16.83;2.28;;;8.80;99.90;;;;;;5050029;28;20102;-74
2021/03/13 08:44:20;;;;;;;19.23;2.63;;;8.80;99.90;;;;;;5067355;28;20420;-76
2021/03/13 08:47:08;;;;;;;16.13;2.75;;;8.70;99.90;;;;;;5070412;28;20025;-75
2021/03/13 08:49:38;;;;;;;18.08;2.60;;;8.70;99.90;;;;;;5067213;28;20381;-75
2021/03/13 08:52:07;;;;;;;17.55;2.58;;;8.80;99.90;;;;;;5072157;28;20408;-75
2021/03/13 08:54:43;;;;;;;18.55;2.45;;;8.70;99.90;;;;;;5071957;28;20492;-75
2021/03/13 08:57:25;;;;;;;20.30;2.50;;;8.60;99.90;;;;;;5071501;28;20112;-76
2021/03/13 08:59:53;;;;;;;12.60;2.20;;;8.50;99.90;;;;;;5070020;28;20028;-75
2021/03/13 09:02:21;;;;;;;13.70;3.13;;;8.50;99.90;;;;;;5070135;28;20028;-75
2021/03/13 09:04:51;;;;;;;;;;;8.60;99.90;;;;;;5071897;28;20024;-76
2021/03/13 09:07:21;;;;;;;27.00;2.35;;;8.70;99.90;;;;;;5081249;28;19963;-76
2021/03/13 09:09:48;;;;;;;11.65;2.75;;;8.70;99.90;;;;;;5069691;28;20493;-75
2021/03/13 09:12:19;;;;;;;22.50;4.97;;;8.70;99.90;;;;;;5071673;28;20041;-76
2021/03/13 09:14:56;;;;;;;27.40;3.42;;;8.70;99.90;;;;;;5072365;28;20032;-75
2021/03/13 09:17:27;;;;;;;19.10;3.00;;;8.70;99.90;;;;;;5056100;28;20130;-75
2021/03/13 09:19:53;;;;;;;27.65;3.78;;;8.70;99.90;;;;;;5072964;28;20035;-75
2021/03/13 09:22:21;;;;;;;24.65;3.20;;;8.70;99.90;;;;;;5072834;28;20500;-76
2021/03/13 09:25:02;;;;;;;29.40;4.70;;;8.80;99.90;;;;;;5072752;28;20040;-75
2021/03/13 09:27:37;;;;;;;19.30;3.22;;;8.80;99.90;;;;;;5072446;28;20032;-77
2021/03/13 09:30:15;;;;;;;29.77;2.85;;;8.90;99.90;;;;;;5070807;28;20028;-76
2021/03/13 09:32:43;;;;;;;27.88;3.45;;;9.00;99.90;;;;;;5071627;28;20111;-76
2021/03/13 09:35:10;;;;;;;12.55;2.97;;;9.00;99.90;;;;;;5071667;28;20492;-76
2021/03/13 09:37:36;;;;;;;20.50;2.67;;;9.00;99.90;;;;;;5072172;28;20488;-75
2021/03/13 09:40:06;;;;;;;23.42;2.75;;;9.00;99.90;;;;;;5071093;28;20033;-76
2021/03/13 09:42:34;;;;;;;25.15;4.15;;;9.00;99.90;;;;;;5068659;28;20055;-76
2021/03/13 09:45:11;;;;;;;21.00;2.53;;;8.90;99.90;;;;;;5071742;28;20024;-74
2021/03/13 09:47:44;;;;;;;;;;;8.80;99.90;;;;;;5071578;28;20060;-75
2021/03/13 09:50:25;;;;;;;20.40;3.13;;;8.80;99.90;;;;;;5070434;28;19912;-75
2021/03/13 09:52:51;;;;;;;14.68;3.20;;;8.80;99.90;;;;;;5067614;28;20051;-75
2021/03/13 09:55:19;;;;;;;20.00;2.88;;;8.90;99.90;;;;;;5071693;28;20047;-76
2021/03/13 09:57:47;;;;;;;11.23;1.92;;;9.00;99.90;;;;;;5073958;28;20127;-75
2021/03/13 10:00:24;;;;;;;;;;;9.20;99.90;;;;;;5075695;28;20063;-76
2021/03/13 10:02:51;;;;;;;15.00;3.58;;;9.30;99.90;;;;;;5075203;28;19909;-74
2021/03/13 10:05:22;;;;;;;10.75;2.28;;;9.40;99.90;;;;;;5076245;28;20056;-74
2021/03/13 10:07:50;;;;;;;17.40;2.17;;;9.40;99.90;;;;;;5076365;28;20085;-73
2021/03/13 10:10:19;;;;;;;17.20;2.85;;;9.40;99.90;;;;;;5074983;28;20025;-75
2021/03/13 10:15:33;;;;;;;14.43;2.05;;;9.30;99.90;;;;;;5075909;28;20399;-74
2021/03/13 10:18:04;;;;;;;7.63;2.03;;;9.10;99.90;;;;;;5077735;28;20055;-74
2021/03/13 10:20:39;;;;;;;9.27;2.55;;;9.30;99.90;;;;;;5074584;28;20468;-74
2021/03/13 10:23:10;;;;;;;20.33;2.45;;;9.40;99.90;;;;;;5074984;28;20032;-75
2021/03/13 10:25:38;;;;;;;28.23;3.72;;;9.50;99.90;;;;;;5076106;28;20036;-74
2021/03/13 10:28:06;;;;;;;19.25;2.25;;;9.50;99.90;;;;;;5075203;28;20048;-76
2021/03/13 10:30:33;;;;;;;13.55;2.17;;;9.50;99.90;;;;;;5074668;28;20032;-75
2021/03/13 10:32:58;;;;;;;13.60;3.20;;;9.60;99.90;;;;;;5075760;28;20021;-76
2021/03/13 10:35:28;;;;;;;10.18;2.05;;;9.40;99.90;;;;;;5075058;28;20024;-74
2021/03/13 10:37:58;;;;;;;13.82;2.65;;;9.40;99.90;;;;;;5070966;28;20131;-76
2021/03/13 10:40:39;;;;;;;14.40;1.95;;;9.30;99.90;;;;;;5075484;28;20082;-75
2021/03/13 10:43:19;;;;;;;12.40;2.45;;;9.40;99.90;;;;;;5074421;28;20064;-76
2021/03/13 10:46:00;;;;;;;18.70;2.55;;;9.50;99.90;;;;;;5068504;28;20047;-75
2021/03/13 10:48:28;;;;;;;25.75;1.92;;;9.50;99.90;;;;;;5059144;28;20024;-74
2021/03/13 10:50:56;;;;;;;21.63;2.55;;;9.50;99.90;;;;;;5076017;28;20078;-76
2021/03/13 10:53:27;;;;;;;15.05;3.58;;;9.40;99.90;;;;;;5073259;28;20120;-75
2021/03/13 10:55:55;;;;;;;14.35;2.22;;;9.40;99.90;;;;;;5071135;28;20029;-74
2021/03/13 10:58:24;;;;;;;13.77;2.35;;;9.50;99.90;;;;;;5066883;28;20111;-75
2021/03/13 11:00:50;;;;;;;18.15;2.22;;;9.50;99.90;;;;;;5065279;28;20497;-74
2021/03/13 11:03:16;;;;;;;11.45;2.38;;;9.30;99.90;;;;;;5068215;28;20066;-76
2021/03/13 11:05:41;;;;;;;11.93;2.15;;;9.30;99.90;;;;;;5067501;28;20495;-75
2021/03/13 11:08:11;;;;;;;15.18;2.50;;;9.40;99.90;;;;;;5064738;28;20024;-77
2021/03/13 11:10:37;;;;;;;12.57;2.33;;;9.40;99.90;;;;;;5065871;28;20541;-76
2021/03/13 11:13:05;;;;;;;14.63;2.63;;;9.30;99.90;;;;;;5066565;28;20028;-77
2021/03/13 11:15:30;;;;;;;17.25;2.60;;;9.30;99.90;;;;;;5063943;28;20538;-74
2021/03/13 11:17:56;;;;;;;21.65;3.63;;;9.30;99.90;;;;;;5067119;28;20033;-75
2021/03/13 11:20:21;;;;;;;10.00;1.83;;;9.40;99.90;;;;;;5072850;28;20491;-75
2021/03/13 11:22:47;;;;;;;13.60;2.38;;;9.40;99.90;;;;;;5075196;28;20091;-76
2021/03/13 11:25:13;;;;;;;10.15;1.80;;;9.30;99.90;;;;;;5073668;28;20138;-74
2021/03/13 11:27:39;;;;;;;17.92;2.63;;;9.10;99.90;;;;;;5073228;28;20082;-75
2021/03/13 11:30:07;;;;;;;10.63;1.67;;;9.20;99.90;;;;;;5073686;28;20024;-77
2021/03/13 11:32:33;;;;;;;13.30;2.72;;;9.10;99.90;;;;;;5069474;28;20028;-76
2021/03/13 11:34:59;;;;;;;13.45;2.92;;;9.10;99.90;;;;;;5074845;28;20025;-77
2021/03/13 11:37:25;;;;;;;11.40;1.77;;;9.10;99.90;;;;;;5073599;28;20028;-76
2021/03/13 11:39:50;;;;;;;14.98;2.10;;;9.20;99.90;;;;;;5070689;28;20457;-76
2021/03/13 11:42:16;;;;;;;16.05;1.58;;;9.20;99.90;;;;;;5074343;28;20028;-76
2021/03/13 11:44:42;;;;;;;20.13;2.17;;;9.20;99.90;;;;;;5074985;28;20020;-77
2021/03/13 11:47:07;;;;;;;12.63;1.40;;;9.50;99.90;;;;;;5074930;28;20055;-76
2021/03/13 11:49:33;;;;;;;16.98;2.70;;;9.70;99.90;;;;;;5073828;28;20035;-75
2021/03/13 11:51:58;;;;;;;10.57;1.90;;;9.90;99.90;;;;;;5072806;28;20033;-77
2021/03/13 11:54:24;;;;;;;17.95;1.73;;;10.20;99.90;;;;;;5073126;28;20036;-75
2021/03/13 11:56:50;;;;;;;11.55;2.13;;;10.50;99.90;;;;;;5071368;28;20016;-75
2021/03/13 11:59:15;;;;;;;12.68;1.75;;;10.50;99.90;;;;;;5071653;28;20385;-75
2021/03/13 12:01:41;;;;;;;7.72;1.35;;;10.80;99.90;;;;;;5074012;28;20036;-76
2021/03/13 12:04:07;;;;;;;9.82;2.60;;;10.80;99.90;;;;;;5073042;28;20491;-75
2021/03/13 12:06:32;;;;;;;11.77;1.80;;;10.40;99.90;;;;;;5074580;28;20039;-76
2021/03/13 12:09:01;;;;;;;4.00;1.90;;;10.30;99.90;;;;;;5074275;28;20150;-76
2021/03/13 12:11:28;;;;;;;14.45;2.72;;;10.10;99.90;;;;;;5072995;28;20024;-76
2021/03/13 12:13:53;;;;;;;13.35;1.35;;;10.10;99.90;;;;;;5074276;28;20101;-75
2021/03/13 12:16:19;;;;;;;10.80;1.40;;;9.90;99.90;;;;;;5073016;28;20025;-75
2021/03/13 12:18:44;;;;;;;7.60;1.30;;;9.60;99.90;;;;;;5073527;28;20024;-75
2021/03/13 12:21:10;;;;;;;11.35;1.63;;;9.50;99.90;;;;;;5072699;28;20136;-76
2021/03/13 12:23:35;;;;;;;7.68;1.30;;;9.40;99.90;;;;;;5072671;28;20447;-75
2021/03/13 12:26:01;;;;;;;9.75;1.50;;;9.40;99.90;;;;;;5073433;28;20108;-76
2021/03/13 12:28:27;;;;;;;15.57;3.53;;;9.40;99.90;;;;;;5072660;28;20041;-75
2021/03/13 12:30:52;;;;;;;3.85;0.95;;;9.60;99.90;;;;;;5074054;28;20029;-76
2021/03/13 12:33:18;;;;;;;9.52;0.85;;;9.90;99.90;;;;;;5074180;28;20048;-77
2021/03/13 12:35:44;;;;;;;6.95;1.25;;;9.80;99.90;;;;;;5073967;28;20025;-76
2021/03/13 12:38:09;;;;;;;20.80;1.50;;;9.60;99.90;;;;;;5073929;28;20037;-77
2021/03/13 12:40:35;;;;;;;6.65;1.02;;;9.70;99.90;;;;;;5073896;28;20081;-78
2021/03/13 12:43:00;;;;;;;15.85;1.92;;;9.80;99.90;;;;;;5089876;28;20442;-76
2021/03/13 12:45:26;;;;;;;14.52;1.65;;;9.80;99.90;;;;;;5082789;28;20081;-77
2021/03/13 12:47:52;;;;;;;13.68;2.50;;;9.90;99.90;;;;;;5073763;28;20473;-75
2021/03/13 12:50:18;;;;;;;11.40;2.80;;;10.00;99.90;;;;;;5068807;28;20025;-76
2021/03/13 12:52:43;;;;;;;6.50;1.50;;;10.00;99.90;;;;;;5069257;28;20044;-77
2021/03/13 12:55:10;;;;;;;8.52;1.30;;;9.60;99.90;;;;;;5053663;28;20025;-75
2021/03/13 12:57:35;;;;;;;15.98;2.03;;;9.40;99.90;;;;;;5053514;28;20146;-76
2021/03/13 13:00:02;;;;;;;14.18;2.15;;;9.40;99.90;;;;;;5052338;28;20537;-76
2021/03/13 13:02:27;;;;;;;8.63;2.28;;;9.60;99.90;;;;;;5063754;28;20024;-76
2021/03/13 13:04:53;;;;;;;7.65;1.30;;;9.70;99.90;;;;;;5072220;28;20511;-75
2021/03/13 13:07:19;;;;;;;12.15;1.25;;;9.60;99.90;;;;;;5072429;28;20031;-75